Ana Sayfa
METAR-TAF:

METAR-TAF

Havaalanları :

Tawau, Malezya

Enlem: 04-16N, Boylam: 117-53E, yükseklik: 18 m

Güncel hava durumu gözlemi

Rapor saat 09:00 UTC de 1 saat ve 6 dakika önce yapıldı.
Rüzgar güneydoğudan 8 kt, doğu ve güney arasında değişken
Sıcaklık 29°C
Nem 84%
Basınç 1007 hPa
Görüş mesafesi 10 km veya daha fazla
1700 ft yükseklikte parçalı bulutlu

METAR: WBKW 280900Z 14008KT 100V170 9999 SCT017 29/26 Q1007

Saat: 18:06 (10:06 UTC)

Tahmin

Rapor saat 05:00 UTC de 5 saat ve 6 dakika önce yapıldı.
Ayın 28'si saat 06 UTC'den ayın 29'si saat 06 UTC'ye kadar geçerli Tahmin
Rüzgar kuzey/kuzeydoğudan 7 kt
Görüş mesafesi 10 km veya daha fazla
1700 ft yükseklikte az bulutlu

TAF: WBKW 280500Z 2806/2906 03007KT 9999 FEW017

4.000'den fazla havaalanı için hava durumu gözlemleri ve tahminleri (METAR ve TAF raporları).

Kullanılabilir istasyonlar harita üzerinde sarı ve kırmızı noktalarla gösterilir.

İstasyonun adını görmek için fareyi noktanın üzerinde gezdirin.

Sonrasında hava gözlem ve tahminlerini görmek için tıklayın.

Haritayı değiştirmek için: yaklaştırmak için siyah artı işaretli yeşil düğmeye ve uzaklaştırmak için de eksi işaretli düğmeye hızla tıklayın; bitişik haritalar için yeşil okları kullanın.


METAR-TAF: